sensor_id;sensor_type;location;lat;lon;timestamp;temperature;humidity
5457;DHT22;2751;49.802;9.944;2022-12-04T00:01:59;3.30;99.90
5457;DHT22;2751;49.802;9.944;2022-12-04T00:04:26;3.30;99.90
5457;DHT22;2751;49.802;9.944;2022-12-04T00:06:53;3.30;99.90
5457;DHT22;2751;49.802;9.944;2022-12-04T00:09:21;3.20;99.90
5457;DHT22;2751;49.802;9.944;2022-12-04T00:11:48;3.20;99.90
5457;DHT22;2751;49.802;9.944;2022-12-04T00:14:15;3.20;99.90
5457;DHT22;2751;49.802;9.944;2022-12-04T00:16:43;3.20;99.90
5457;DHT22;2751;49.802;9.944;2022-12-04T00:19:10;3.30;99.90
5457;DHT22;2751;49.802;9.944;2022-12-04T00:21:37;3.50;99.90
5457;DHT22;2751;49.802;9.944;2022-12-04T00:24:05;3.60;99.90
5457;DHT22;2751;49.802;9.944;2022-12-04T00:26:32;3.30;99.90
5457;DHT22;2751;49.802;9.944;2022-12-04T00:28:59;3.40;99.90
5457;DHT22;2751;49.802;9.944;2022-12-04T00:31:28;3.30;99.90
5457;DHT22;2751;49.802;9.944;2022-12-04T00:33:56;3.40;99.90
5457;DHT22;2751;49.802;9.944;2022-12-04T00:36:25;3.40;99.90
5457;DHT22;2751;49.802;9.944;2022-12-04T00:38:52;3.40;99.90
5457;DHT22;2751;49.802;9.944;2022-12-04T00:41:22;3.70;99.90
5457;DHT22;2751;49.802;9.944;2022-12-04T00:43:49;3.30;99.90
5457;DHT22;2751;49.802;9.944;2022-12-04T00:46:16;3.30;99.90
5457;DHT22;2751;49.802;9.944;2022-12-04T00:48:43;3.30;99.90
5457;DHT22;2751;49.802;9.944;2022-12-04T00:51:15;3.30;99.90
5457;DHT22;2751;49.802;9.944;2022-12-04T00:53:43;3.30;99.90
5457;DHT22;2751;49.802;9.944;2022-12-04T00:56:12;3.30;99.90
5457;DHT22;2751;49.802;9.944;2022-12-04T00:58:39;3.30;99.90
5457;DHT22;2751;49.802;9.944;2022-12-04T01:01:08;3.30;99.90
5457;DHT22;2751;49.802;9.944;2022-12-04T01:03:35;3.20;99.90
5457;DHT22;2751;49.802;9.944;2022-12-04T01:06:03;3.20;99.90
5457;DHT22;2751;49.802;9.944;2022-12-04T01:08:32;3.20;99.90
5457;DHT22;2751;49.802;9.944;2022-12-04T01:11:03;3.50;99.90
5457;DHT22;2751;49.802;9.944;2022-12-04T01:13:30;3.20;99.90
5457;DHT22;2751;49.802;9.944;2022-12-04T01:15:57;3.20;99.90
5457;DHT22;2751;49.802;9.944;2022-12-04T01:18:24;3.40;99.90
5457;DHT22;2751;49.802;9.944;2022-12-04T01:20:51;3.20;99.90
5457;DHT22;2751;49.802;9.944;2022-12-04T01:23:19;3.20;99.90
5457;DHT22;2751;49.802;9.944;2022-12-04T01:25:53;3.20;99.90
5457;DHT22;2751;49.802;9.944;2022-12-04T01:28:20;3.20;99.90
5457;DHT22;2751;49.802;9.944;2022-12-04T01:30:59;3.40;99.90
5457;DHT22;2751;49.802;9.944;2022-12-04T01:33:26;3.30;99.90
5457;DHT22;2751;49.802;9.944;2022-12-04T01:35:54;3.30;99.90
5457;DHT22;2751;49.802;9.944;2022-12-04T01:38:21;3.20;99.90
5457;DHT22;2751;49.802;9.944;2022-12-04T01:40:49;3.20;99.90
5457;DHT22;2751;49.802;9.944;2022-12-04T01:43:18;3.20;99.90
5457;DHT22;2751;49.802;9.944;2022-12-04T01:45:45;3.20;99.90
5457;DHT22;2751;49.802;9.944;2022-12-04T01:48:20;3.10;99.90
5457;DHT22;2751;49.802;9.944;2022-12-04T01:50:51;3.20;99.90
5457;DHT22;2751;49.802;9.944;2022-12-04T01:53:19;3.40;99.90
5457;DHT22;2751;49.802;9.944;2022-12-04T01:55:47;3.20;99.90
5457;DHT22;2751;49.802;9.944;2022-12-04T01:58:20;3.20;99.90
5457;DHT22;2751;49.802;9.944;2022-12-04T02:00:51;3.10;99.90
5457;DHT22;2751;49.802;9.944;2022-12-04T02:03:20;3.50;99.90
5457;DHT22;2751;49.802;9.944;2022-12-04T02:05:47;3.00;99.90
5457;DHT22;2751;49.802;9.944;2022-12-04T02:08:13;3.10;99.90
5457;DHT22;2751;49.802;9.944;2022-12-04T02:10:49;3.50;99.90
5457;DHT22;2751;49.802;9.944;2022-12-04T02:13:26;3.00;99.90
5457;DHT22;2751;49.802;9.944;2022-12-04T02:16:00;3.10;99.90
5457;DHT22;2751;49.802;9.944;2022-12-04T02:18:34;3.00;99.90
5457;DHT22;2751;49.802;9.944;2022-12-04T02:21:07;3.10;99.90
5457;DHT22;2751;49.802;9.944;2022-12-04T02:24:10;3.10;99.90
5457;DHT22;2751;49.802;9.944;2022-12-04T02:26:47;3.10;99.90
5457;DHT22;2751;49.802;9.944;2022-12-04T02:29:28;3.20;99.90
5457;DHT22;2751;49.802;9.944;2022-12-04T02:32:02;3.20;99.90
5457;DHT22;2751;49.802;9.944;2022-12-04T02:34:37;3.20;99.90
5457;DHT22;2751;49.802;9.944;2022-12-04T02:37:08;3.20;99.90
5457;DHT22;2751;49.802;9.944;2022-12-04T02:39:39;3.20;99.90
5457;DHT22;2751;49.802;9.944;2022-12-04T02:42:11;3.20;99.90
5457;DHT22;2751;49.802;9.944;2022-12-04T02:44:43;3.10;99.90
5457;DHT22;2751;49.802;9.944;2022-12-04T02:47:13;3.40;99.90
5457;DHT22;2751;49.802;9.944;2022-12-04T02:49:44;3.30;99.90
5457;DHT22;2751;49.802;9.944;2022-12-04T02:52:14;3.10;99.90
5457;DHT22;2751;49.802;9.944;2022-12-04T02:54:45;3.20;99.90
5457;DHT22;2751;49.802;9.944;2022-12-04T02:57:15;3.60;99.90
5457;DHT22;2751;49.802;9.944;2022-12-04T02:59:47;3.20;99.90
5457;DHT22;2751;49.802;9.944;2022-12-04T03:02:22;3.20;99.90
5457;DHT22;2751;49.802;9.944;2022-12-04T03:04:51;3.30;99.90
5457;DHT22;2751;49.802;9.944;2022-12-04T03:07:23;3.60;99.90
5457;DHT22;2751;49.802;9.944;2022-12-04T03:09:53;3.60;99.90
5457;DHT22;2751;49.802;9.944;2022-12-04T03:12:35;3.50;99.90
5457;DHT22;2751;49.802;9.944;2022-12-04T03:15:09;3.20;99.90
5457;DHT22;2751;49.802;9.944;2022-12-04T03:17:43;3.20;99.90
5457;DHT22;2751;49.802;9.944;2022-12-04T03:20:14;3.20;99.90
5457;DHT22;2751;49.802;9.944;2022-12-04T03:22:43;3.20;99.90
5457;DHT22;2751;49.802;9.944;2022-12-04T03:25:13;3.20;99.90
5457;DHT22;2751;49.802;9.944;2022-12-04T03:27:44;3.20;99.90
5457;DHT22;2751;49.802;9.944;2022-12-04T03:30:17;3.20;99.90
5457;DHT22;2751;49.802;9.944;2022-12-04T03:32:48;3.20;99.90
5457;DHT22;2751;49.802;9.944;2022-12-04T03:35:20;3.20;99.90
5457;DHT22;2751;49.802;9.944;2022-12-04T03:37:54;3.20;99.90
5457;DHT22;2751;49.802;9.944;2022-12-04T03:40:25;3.20;99.90
5457;DHT22;2751;49.802;9.944;2022-12-04T03:42:59;2.90;99.90
5457;DHT22;2751;49.802;9.944;2022-12-04T03:45:35;3.20;99.90
5457;DHT22;2751;49.802;9.944;2022-12-04T03:48:08;3.20;99.90
5457;DHT22;2751;49.802;9.944;2022-12-04T03:50:38;3.20;99.90
5457;DHT22;2751;49.802;9.944;2022-12-04T03:53:14;3.20;99.90
5457;DHT22;2751;49.802;9.944;2022-12-04T03:55:47;3.20;99.90
5457;DHT22;2751;49.802;9.944;2022-12-04T03:58:20;3.20;99.90
5457;DHT22;2751;49.802;9.944;2022-12-04T04:00:52;3.20;99.90
5457;DHT22;2751;49.802;9.944;2022-12-04T04:03:21;3.20;99.90
5457;DHT22;2751;49.802;9.944;2022-12-04T04:05:54;3.20;99.90
5457;DHT22;2751;49.802;9.944;2022-12-04T04:08:26;3.20;99.90
5457;DHT22;2751;49.802;9.944;2022-12-04T04:11:06;3.20;99.90
5457;DHT22;2751;49.802;9.944;2022-12-04T04:13:37;3.20;99.90
5457;DHT22;2751;49.802;9.944;2022-12-04T04:16:28;3.20;99.90
5457;DHT22;2751;49.802;9.944;2022-12-04T04:19:15;3.10;99.90
5457;DHT22;2751;49.802;9.944;2022-12-04T04:22:04;3.10;99.90
5457;DHT22;2751;49.802;9.944;2022-12-04T04:24:54;3.10;99.90
5457;DHT22;2751;49.802;9.944;2022-12-04T04:27:22;3.40;99.90
5457;DHT22;2751;49.802;9.944;2022-12-04T04:29:50;3.20;99.90
5457;DHT22;2751;49.802;9.944;2022-12-04T04:32:25;3.10;99.90
5457;DHT22;2751;49.802;9.944;2022-12-04T04:34:58;3.10;99.90
5457;DHT22;2751;49.802;9.944;2022-12-04T04:37:32;3.10;99.90
5457;DHT22;2751;49.802;9.944;2022-12-04T04:40:08;3.20;99.90
5457;DHT22;2751;49.802;9.944;2022-12-04T04:42:43;3.20;99.90
5457;DHT22;2751;49.802;9.944;2022-12-04T04:45:15;3.20;99.90
5457;DHT22;2751;49.802;9.944;2022-12-04T04:47:48;3.30;99.90
5457;DHT22;2751;49.802;9.944;2022-12-04T04:50:17;3.30;99.90
5457;DHT22;2751;49.802;9.944;2022-12-04T04:52:47;3.30;99.90
5457;DHT22;2751;49.802;9.944;2022-12-04T04:55:15;3.50;99.90
5457;DHT22;2751;49.802;9.944;2022-12-04T04:57:43;3.50;99.90
5457;DHT22;2751;49.802;9.944;2022-12-04T05:00:13;3.30;99.90
5457;DHT22;2751;49.802;9.944;2022-12-04T05:02:41;3.20;99.90
5457;DHT22;2751;49.802;9.944;2022-12-04T05:05:10;3.20;99.90
5457;DHT22;2751;49.802;9.944;2022-12-04T05:07:37;3.40;99.90
5457;DHT22;2751;49.802;9.944;2022-12-04T05:10:05;3.20;99.90
5457;DHT22;2751;49.802;9.944;2022-12-04T05:12:32;3.20;99.90
5457;DHT22;2751;49.802;9.944;2022-12-04T05:14:59;3.30;99.90
5457;DHT22;2751;49.802;9.944;2022-12-04T05:17:26;3.20;99.90
5457;DHT22;2751;49.802;9.944;2022-12-04T05:19:53;3.20;99.90
5457;DHT22;2751;49.802;9.944;2022-12-04T05:22:23;3.20;99.90
5457;DHT22;2751;49.802;9.944;2022-12-04T05:24:50;3.30;99.90
5457;DHT22;2751;49.802;9.944;2022-12-04T05:27:18;3.30;99.90
5457;DHT22;2751;49.802;9.944;2022-12-04T05:29:45;3.30;99.90
5457;DHT22;2751;49.802;9.944;2022-12-04T05:32:12;3.30;99.90
5457;DHT22;2751;49.802;9.944;2022-12-04T05:34:39;3.40;99.90
5457;DHT22;2751;49.802;9.944;2022-12-04T05:37:06;3.40;99.90
5457;DHT22;2751;49.802;9.944;2022-12-04T05:39:35;3.30;99.90
5457;DHT22;2751;49.802;9.944;2022-12-04T05:42:02;3.40;99.90
5457;DHT22;2751;49.802;9.944;2022-12-04T05:44:29;3.30;99.90
5457;DHT22;2751;49.802;9.944;2022-12-04T05:46:56;3.20;99.90
5457;DHT22;2751;49.802;9.944;2022-12-04T05:49:23;3.20;99.90
5457;DHT22;2751;49.802;9.944;2022-12-04T05:51:50;3.30;99.90
5457;DHT22;2751;49.802;9.944;2022-12-04T05:54:17;3.20;99.90
5457;DHT22;2751;49.802;9.944;2022-12-04T05:56:46;3.30;99.90
5457;DHT22;2751;49.802;9.944;2022-12-04T05:59:14;3.30;99.90
5457;DHT22;2751;49.802;9.944;2022-12-04T06:01:41;3.30;99.90
5457;DHT22;2751;49.802;9.944;2022-12-04T06:04:08;3.40;99.90
5457;DHT22;2751;49.802;9.944;2022-12-04T06:06:35;3.30;99.90
5457;DHT22;2751;49.802;9.944;2022-12-04T06:09:02;3.40;99.90
5457;DHT22;2751;49.802;9.944;2022-12-04T06:11:31;3.40;99.90
5457;DHT22;2751;49.802;9.944;2022-12-04T06:14:00;3.40;99.90
5457;DHT22;2751;49.802;9.944;2022-12-04T06:16:29;3.40;99.90
5457;DHT22;2751;49.802;9.944;2022-12-04T06:18:58;3.40;99.90
5457;DHT22;2751;49.802;9.944;2022-12-04T06:21:26;3.40;99.90
5457;DHT22;2751;49.802;9.944;2022-12-04T06:23:54;3.40;99.90
5457;DHT22;2751;49.802;9.944;2022-12-04T06:26:22;3.40;99.90
5457;DHT22;2751;49.802;9.944;2022-12-04T06:28:51;3.50;99.90
5457;DHT22;2751;49.802;9.944;2022-12-04T06:31:20;3.50;99.90
5457;DHT22;2751;49.802;9.944;2022-12-04T06:33:47;3.50;99.90
5457;DHT22;2751;49.802;9.944;2022-12-04T06:36:17;3.40;99.90
5457;DHT22;2751;49.802;9.944;2022-12-04T06:38:46;3.80;99.90
5457;DHT22;2751;49.802;9.944;2022-12-04T06:41:14;3.40;99.90
5457;DHT22;2751;49.802;9.944;2022-12-04T06:43:42;3.40;99.90
5457;DHT22;2751;49.802;9.944;2022-12-04T06:46:11;3.60;99.90
5457;DHT22;2751;49.802;9.944;2022-12-04T06:48:40;3.40;99.90
5457;DHT22;2751;49.802;9.944;2022-12-04T06:51:09;3.40;99.90
5457;DHT22;2751;49.802;9.944;2022-12-04T06:53:36;3.40;99.90
5457;DHT22;2751;49.802;9.944;2022-12-04T06:56:06;3.40;99.90
5457;DHT22;2751;49.802;9.944;2022-12-04T06:58:33;3.50;99.90
5457;DHT22;2751;49.802;9.944;2022-12-04T07:01:05;3.50;99.90
5457;DHT22;2751;49.802;9.944;2022-12-04T07:03:32;3.50;99.90
5457;DHT22;2751;49.802;9.944;2022-12-04T07:06:13;3.50;99.90
5457;DHT22;2751;49.802;9.944;2022-12-04T07:08:40;3.50;99.90
5457;DHT22;2751;49.802;9.944;2022-12-04T07:11:08;3.50;99.90
5457;DHT22;2751;49.802;9.944;2022-12-04T07:13:35;3.60;99.90
5457;DHT22;2751;49.802;9.944;2022-12-04T07:16:02;3.60;99.90
5457;DHT22;2751;49.802;9.944;2022-12-04T07:18:30;3.60;99.90
5457;DHT22;2751;49.802;9.944;2022-12-04T07:20:58;3.70;99.90
5457;DHT22;2751;49.802;9.944;2022-12-04T07:23:26;3.70;99.90
5457;DHT22;2751;49.802;9.944;2022-12-04T07:25:53;3.90;99.90
5457;DHT22;2751;49.802;9.944;2022-12-04T07:28:20;3.70;99.90
5457;DHT22;2751;49.802;9.944;2022-12-04T07:30:47;3.70;99.90
5457;DHT22;2751;49.802;9.944;2022-12-04T07:33:14;3.70;99.90
5457;DHT22;2751;49.802;9.944;2022-12-04T07:35:41;3.70;99.90
5457;DHT22;2751;49.802;9.944;2022-12-04T07:38:08;3.60;99.90
5457;DHT22;2751;49.802;9.944;2022-12-04T07:40:37;3.70;99.90
5457;DHT22;2751;49.802;9.944;2022-12-04T07:43:04;3.70;99.90
5457;DHT22;2751;49.802;9.944;2022-12-04T07:45:31;3.70;99.90
5457;DHT22;2751;49.802;9.944;2022-12-04T07:47:58;3.70;99.90
5457;DHT22;2751;49.802;9.944;2022-12-04T07:50:24;3.70;99.90
5457;DHT22;2751;49.802;9.944;2022-12-04T07:52:51;4.10;99.90
5457;DHT22;2751;49.802;9.944;2022-12-04T07:55:18;3.80;99.90
5457;DHT22;2751;49.802;9.944;2022-12-04T07:57:46;3.70;99.90
5457;DHT22;2751;49.802;9.944;2022-12-04T08:00:14;3.80;99.90
5457;DHT22;2751;49.802;9.944;2022-12-04T08:02:41;3.80;99.90
5457;DHT22;2751;49.802;9.944;2022-12-04T08:05:08;3.80;99.90
5457;DHT22;2751;49.802;9.944;2022-12-04T08:07:35;3.80;99.90
5457;DHT22;2751;49.802;9.944;2022-12-04T08:10:03;3.80;99.90
5457;DHT22;2751;49.802;9.944;2022-12-04T08:12:30;3.80;99.90
5457;DHT22;2751;49.802;9.944;2022-12-04T08:14:59;3.90;99.90
5457;DHT22;2751;49.802;9.944;2022-12-04T08:17:26;4.10;99.90
5457;DHT22;2751;49.802;9.944;2022-12-04T08:19:53;3.90;99.90
5457;DHT22;2751;49.802;9.944;2022-12-04T08:22:20;4.00;99.90
5457;DHT22;2751;49.802;9.944;2022-12-04T08:24:47;4.00;99.90
5457;DHT22;2751;49.802;9.944;2022-12-04T08:27:14;4.40;99.90
5457;DHT22;2751;49.802;9.944;2022-12-04T08:29:40;4.10;99.90
5457;DHT22;2751;49.802;9.944;2022-12-04T08:32:09;4.10;99.90
5457;DHT22;2751;49.802;9.944;2022-12-04T08:34:36;4.10;99.90
5457;DHT22;2751;49.802;9.944;2022-12-04T08:37:03;4.10;99.90
5457;DHT22;2751;49.802;9.944;2022-12-04T08:39:30;4.10;99.90
5457;DHT22;2751;49.802;9.944;2022-12-04T08:41:56;4.20;99.90
5457;DHT22;2751;49.802;9.944;2022-12-04T08:44:39;4.30;99.90
5457;DHT22;2751;49.802;9.944;2022-12-04T08:47:06;4.30;99.90
5457;DHT22;2751;49.802;9.944;2022-12-04T08:49:34;4.30;99.90
5457;DHT22;2751;49.802;9.944;2022-12-04T08:52:01;4.30;99.90
5457;DHT22;2751;49.802;9.944;2022-12-04T08:54:28;4.40;99.90
5457;DHT22;2751;49.802;9.944;2022-12-04T08:56:55;4.40;99.90
5457;DHT22;2751;49.802;9.944;2022-12-04T08:59:22;4.70;99.90
5457;DHT22;2751;49.802;9.944;2022-12-04T09:01:50;4.30;99.90
5457;DHT22;2751;49.802;9.944;2022-12-04T09:04:17;4.30;99.90
5457;DHT22;2751;49.802;9.944;2022-12-04T09:06:45;4.40;99.90
5457;DHT22;2751;49.802;9.944;2022-12-04T09:09:12;4.60;99.90
5457;DHT22;2751;49.802;9.944;2022-12-04T09:11:39;4.80;99.90
5457;DHT22;2751;49.802;9.944;2022-12-04T09:14:06;4.60;99.90
5457;DHT22;2751;49.802;9.944;2022-12-04T09:16:36;4.40;99.90
5457;DHT22;2751;49.802;9.944;2022-12-04T09:19:03;4.50;99.90
5457;DHT22;2751;49.802;9.944;2022-12-04T09:21:30;4.50;99.90
5457;DHT22;2751;49.802;9.944;2022-12-04T09:23:59;4.50;99.90
5457;DHT22;2751;49.802;9.944;2022-12-04T09:26:28;4.50;99.90
5457;DHT22;2751;49.802;9.944;2022-12-04T09:28:58;4.60;99.90
5457;DHT22;2751;49.802;9.944;2022-12-04T09:31:25;4.70;99.90
5457;DHT22;2751;49.802;9.944;2022-12-04T09:33:52;5.10;99.90
5457;DHT22;2751;49.802;9.944;2022-12-04T09:36:20;4.80;99.90
5457;DHT22;2751;49.802;9.944;2022-12-04T09:38:48;4.80;99.90
5457;DHT22;2751;49.802;9.944;2022-12-04T09:41:37;4.90;99.90
5457;DHT22;2751;49.802;9.944;2022-12-04T09:44:09;4.90;99.90
5457;DHT22;2751;49.802;9.944;2022-12-04T09:46:46;5.40;99.90
5457;DHT22;2751;49.802;9.944;2022-12-04T09:49:16;5.30;99.90
5457;DHT22;2751;49.802;9.944;2022-12-04T09:51:46;5.40;99.90
5457;DHT22;2751;49.802;9.944;2022-12-04T09:54:21;5.10;99.90
5457;DHT22;2751;49.802;9.944;2022-12-04T09:57:01;5.20;99.90
5457;DHT22;2751;49.802;9.944;2022-12-04T09:59:31;5.20;99.90
5457;DHT22;2751;49.802;9.944;2022-12-04T10:02:02;5.20;99.90
5457;DHT22;2751;49.802;9.944;2022-12-04T10:04:30;5.10;99.90
5457;DHT22;2751;49.802;9.944;2022-12-04T10:07:02;5.00;99.90
5457;DHT22;2751;49.802;9.944;2022-12-04T10:09:34;5.40;99.90
5457;DHT22;2751;49.802;9.944;2022-12-04T10:12:11;5.20;99.90
5457;DHT22;2751;49.802;9.944;2022-12-04T10:15:00;5.00;99.90
5457;DHT22;2751;49.802;9.944;2022-12-04T10:17:50;4.80;99.90
5457;DHT22;2751;49.802;9.944;2022-12-04T10:20:41;4.80;99.90
5457;DHT22;2751;49.802;9.944;2022-12-04T10:23:19;4.80;99.90
5457;DHT22;2751;49.802;9.944;2022-12-04T10:25:51;4.70;99.90
5457;DHT22;2751;49.802;9.944;2022-12-04T10:28:25;4.80;99.90
5457;DHT22;2751;49.802;9.944;2022-12-04T10:30:57;4.80;99.90
5457;DHT22;2751;49.802;9.944;2022-12-04T10:33:34;4.80;99.90
5457;DHT22;2751;49.802;9.944;2022-12-04T10:36:03;4.90;99.90
5457;DHT22;2751;49.802;9.944;2022-12-04T10:38:36;4.90;99.90
5457;DHT22;2751;49.802;9.944;2022-12-04T10:41:11;4.90;99.90
5457;DHT22;2751;49.802;9.944;2022-12-04T10:43:43;4.90;99.90
5457;DHT22;2751;49.802;9.944;2022-12-04T10:46:12;4.90;99.90
5457;DHT22;2751;49.802;9.944;2022-12-04T10:48:44;5.20;99.90
5457;DHT22;2751;49.802;9.944;2022-12-04T10:51:14;4.90;99.90
5457;DHT22;2751;49.802;9.944;2022-12-04T10:53:41;5.00;99.90
5457;DHT22;2751;49.802;9.944;2022-12-04T10:56:12;5.00;99.90
5457;DHT22;2751;49.802;9.944;2022-12-04T10:58:41;5.10;99.90
5457;DHT22;2751;49.802;9.944;2022-12-04T11:01:10;5.40;99.90
5457;DHT22;2751;49.802;9.944;2022-12-04T11:03:38;5.10;99.90
5457;DHT22;2751;49.802;9.944;2022-12-04T11:06:07;5.10;99.90
5457;DHT22;2751;49.802;9.944;2022-12-04T11:08:38;5.20;99.90
5457;DHT22;2751;49.802;9.944;2022-12-04T11:11:09;5.20;99.90
5457;DHT22;2751;49.802;9.944;2022-12-04T11:13:36;5.20;99.90
5457;DHT22;2751;49.802;9.944;2022-12-04T11:16:05;5.20;99.90
5457;DHT22;2751;49.802;9.944;2022-12-04T11:18:34;5.20;99.90
5457;DHT22;2751;49.802;9.944;2022-12-04T11:21:03;5.30;99.90
5457;DHT22;2751;49.802;9.944;2022-12-04T11:23:33;5.30;99.90
5457;DHT22;2751;49.802;9.944;2022-12-04T11:26:00;5.30;99.90
5457;DHT22;2751;49.802;9.944;2022-12-04T11:28:29;5.50;99.90
5457;DHT22;2751;49.802;9.944;2022-12-04T11:31:01;5.30;99.90
5457;DHT22;2751;49.802;9.944;2022-12-04T11:33:34;5.20;99.90
5457;DHT22;2751;49.802;9.944;2022-12-04T11:36:06;5.20;99.90
5457;DHT22;2751;49.802;9.944;2022-12-04T11:38:41;5.20;99.90
5457;DHT22;2751;49.802;9.944;2022-12-04T11:41:23;5.10;99.90
5457;DHT22;2751;49.802;9.944;2022-12-04T11:43:50;5.50;99.90
5457;DHT22;2751;49.802;9.944;2022-12-04T11:46:21;5.30;99.90
5457;DHT22;2751;49.802;9.944;2022-12-04T11:48:50;5.50;99.90
5457;DHT22;2751;49.802;9.944;2022-12-04T11:51:27;5.20;99.90
5457;DHT22;2751;49.802;9.944;2022-12-04T11:53:59;5.60;99.90
5457;DHT22;2751;49.802;9.944;2022-12-04T11:56:30;5.30;99.90
5457;DHT22;2751;49.802;9.944;2022-12-04T11:59:23;5.30;99.90
5457;DHT22;2751;49.802;9.944;2022-12-04T12:02:00;5.20;99.90
5457;DHT22;2751;49.802;9.944;2022-12-04T12:04:50;5.30;99.90
5457;DHT22;2751;49.802;9.944;2022-12-04T12:07:26;5.20;99.90
5457;DHT22;2751;49.802;9.944;2022-12-04T12:10:01;5.60;99.90
5457;DHT22;2751;49.802;9.944;2022-12-04T12:12:38;5.40;99.90
5457;DHT22;2751;49.802;9.944;2022-12-04T12:15:18;5.40;99.90
5457;DHT22;2751;49.802;9.944;2022-12-04T12:17:58;5.40;99.90
5457;DHT22;2751;49.802;9.944;2022-12-04T12:20:37;5.70;99.90
5457;DHT22;2751;49.802;9.944;2022-12-04T12:23:22;5.40;99.90
5457;DHT22;2751;49.802;9.944;2022-12-04T12:26:01;5.50;99.90
5457;DHT22;2751;49.802;9.944;2022-12-04T12:28:44;5.60;99.90
5457;DHT22;2751;49.802;9.944;2022-12-04T12:31:34;5.60;99.90
5457;DHT22;2751;49.802;9.944;2022-12-04T12:34:09;6.00;99.90
5457;DHT22;2751;49.802;9.944;2022-12-04T12:36:42;6.20;99.90
5457;DHT22;2751;49.802;9.944;2022-12-04T12:39:14;5.70;99.90
5457;DHT22;2751;49.802;9.944;2022-12-04T12:41:44;5.80;99.90
5457;DHT22;2751;49.802;9.944;2022-12-04T12:44:18;5.80;99.90
5457;DHT22;2751;49.802;9.944;2022-12-04T12:46:49;5.80;99.90
5457;DHT22;2751;49.802;9.944;2022-12-04T12:49:20;5.80;99.90
5457;DHT22;2751;49.802;9.944;2022-12-04T12:51:54;5.80;99.90
5457;DHT22;2751;49.802;9.944;2022-12-04T12:54:29;5.70;99.90
5457;DHT22;2751;49.802;9.944;2022-12-04T12:57:03;5.70;99.90
5457;DHT22;2751;49.802;9.944;2022-12-04T12:59:31;6.10;99.90
5457;DHT22;2751;49.802;9.944;2022-12-04T13:02:02;5.70;99.90
5457;DHT22;2751;49.802;9.944;2022-12-04T13:04:35;5.70;99.90
5457;DHT22;2751;49.802;9.944;2022-12-04T13:07:18;5.90;99.90
5457;DHT22;2751;49.802;9.944;2022-12-04T13:09:49;5.70;99.90
5457;DHT22;2751;49.802;9.944;2022-12-04T13:12:19;5.70;99.90
5457;DHT22;2751;49.802;9.944;2022-12-04T13:14:48;5.70;99.90
5457;DHT22;2751;49.802;9.944;2022-12-04T13:17:17;5.70;99.90
5457;DHT22;2751;49.802;9.944;2022-12-04T13:19:49;5.60;99.90
5457;DHT22;2751;49.802;9.944;2022-12-04T13:22:25;5.70;99.90
5457;DHT22;2751;49.802;9.944;2022-12-04T13:25:02;5.70;99.90
5457;DHT22;2751;49.802;9.944;2022-12-04T13:27:44;6.10;99.90
5457;DHT22;2751;49.802;9.944;2022-12-04T13:30:15;5.80;99.90
5457;DHT22;2751;49.802;9.944;2022-12-04T13:33:01;6.10;99.90
5457;DHT22;2751;49.802;9.944;2022-12-04T13:35:55;5.80;99.90
5457;DHT22;2751;49.802;9.944;2022-12-04T13:38:33;5.80;99.90
5457;DHT22;2751;49.802;9.944;2022-12-04T13:41:03;5.80;99.90
5457;DHT22;2751;49.802;9.944;2022-12-04T13:43:34;5.80;99.90
5457;DHT22;2751;49.802;9.944;2022-12-04T13:46:03;5.80;99.90
5457;DHT22;2751;49.802;9.944;2022-12-04T13:48:37;5.80;99.90
5457;DHT22;2751;49.802;9.944;2022-12-04T13:51:32;5.70;99.90
5457;DHT22;2751;49.802;9.944;2022-12-04T13:54:20;5.70;99.90
5457;DHT22;2751;49.802;9.944;2022-12-04T13:56:49;5.70;99.90
5457;DHT22;2751;49.802;9.944;2022-12-04T13:59:22;6.10;99.90
5457;DHT22;2751;49.802;9.944;2022-12-04T14:01:50;5.70;99.90
5457;DHT22;2751;49.802;9.944;2022-12-04T14:04:26;5.70;99.90
5457;DHT22;2751;49.802;9.944;2022-12-04T14:06:56;5.70;99.90
5457;DHT22;2751;49.802;9.944;2022-12-04T14:09:28;5.90;99.90
5457;DHT22;2751;49.802;9.944;2022-12-04T14:11:59;5.60;99.90
5457;DHT22;2751;49.802;9.944;2022-12-04T14:14:29;5.70;99.90
5457;DHT22;2751;49.802;9.944;2022-12-04T14:16:58;5.80;99.90
5457;DHT22;2751;49.802;9.944;2022-12-04T14:19:28;5.90;99.90
5457;DHT22;2751;49.802;9.944;2022-12-04T14:21:57;5.60;99.90
5457;DHT22;2751;49.802;9.944;2022-12-04T14:24:36;5.80;99.90
5457;DHT22;2751;49.802;9.944;2022-12-04T14:27:30;5.70;99.90
5457;DHT22;2751;49.802;9.944;2022-12-04T14:29:59;5.60;99.90
5457;DHT22;2751;49.802;9.944;2022-12-04T14:32:30;5.50;99.90
5457;DHT22;2751;49.802;9.944;2022-12-04T14:34:59;5.50;99.90
5457;DHT22;2751;49.802;9.944;2022-12-04T14:37:30;5.40;99.90
5457;DHT22;2751;49.802;9.944;2022-12-04T14:40:02;5.30;99.90
5457;DHT22;2751;49.802;9.944;2022-12-04T14:42:34;5.40;99.90
5457;DHT22;2751;49.802;9.944;2022-12-04T14:45:04;5.30;99.90
5457;DHT22;2751;49.802;9.944;2022-12-04T14:47:38;5.30;99.90
5457;DHT22;2751;49.802;9.944;2022-12-04T14:50:17;5.70;99.90
5457;DHT22;2751;49.802;9.944;2022-12-04T14:52:52;5.30;99.90
5457;DHT22;2751;49.802;9.944;2022-12-04T14:55:29;5.30;99.90
5457;DHT22;2751;49.802;9.944;2022-12-04T14:57:59;5.70;99.90
5457;DHT22;2751;49.802;9.944;2022-12-04T15:00:49;5.40;99.90
5457;DHT22;2751;49.802;9.944;2022-12-04T15:03:16;5.30;99.90
5457;DHT22;2751;49.802;9.944;2022-12-04T15:05:44;5.30;99.90
5457;DHT22;2751;49.802;9.944;2022-12-04T15:08:11;5.40;99.90
5457;DHT22;2751;49.802;9.944;2022-12-04T15:10:48;5.40;99.90
5457;DHT22;2751;49.802;9.944;2022-12-04T15:13:34;5.40;99.90
5457;DHT22;2751;49.802;9.944;2022-12-04T15:16:07;5.70;99.90
5457;DHT22;2751;49.802;9.944;2022-12-04T15:18:35;5.30;99.90
5457;DHT22;2751;49.802;9.944;2022-12-04T15:21:03;5.70;99.90
5457;DHT22;2751;49.802;9.944;2022-12-04T15:23:36;5.20;99.90
5457;DHT22;2751;49.802;9.944;2022-12-04T15:26:08;5.50;99.90
5457;DHT22;2751;49.802;9.944;2022-12-04T15:28:40;5.20;99.90
5457;DHT22;2751;49.802;9.944;2022-12-04T15:31:12;5.20;99.90
5457;DHT22;2751;49.802;9.944;2022-12-04T15:33:41;5.20;99.90
5457;DHT22;2751;49.802;9.944;2022-12-04T15:36:14;5.20;99.90
5457;DHT22;2751;49.802;9.944;2022-12-04T15:38:42;5.10;99.90
5457;DHT22;2751;49.802;9.944;2022-12-04T15:41:28;5.20;99.90
5457;DHT22;2751;49.802;9.944;2022-12-04T15:43:56;5.20;99.90
5457;DHT22;2751;49.802;9.944;2022-12-04T15:46:24;5.20;99.90
5457;DHT22;2751;49.802;9.944;2022-12-04T15:49:04;5.30;99.90
5457;DHT22;2751;49.802;9.944;2022-12-04T15:51:31;5.40;99.90
5457;DHT22;2751;49.802;9.944;2022-12-04T15:53:58;5.30;99.90
5457;DHT22;2751;49.802;9.944;2022-12-04T15:56:27;5.20;99.90
5457;DHT22;2751;49.802;9.944;2022-12-04T15:58:56;5.20;99.90
5457;DHT22;2751;49.802;9.944;2022-12-04T16:01:23;5.10;99.90
5457;DHT22;2751;49.802;9.944;2022-12-04T16:03:51;5.40;99.90
5457;DHT22;2751;49.802;9.944;2022-12-04T16:06:21;5.10;99.90
5457;DHT22;2751;49.802;9.944;2022-12-04T16:08:50;5.10;99.90
5457;DHT22;2751;49.802;9.944;2022-12-04T16:11:34;5.10;99.90
5457;DHT22;2751;49.802;9.944;2022-12-04T16:14:12;5.10;99.90
5457;DHT22;2751;49.802;9.944;2022-12-04T16:16:41;5.10;99.90
5457;DHT22;2751;49.802;9.944;2022-12-04T16:19:13;5.00;99.90
5457;DHT22;2751;49.802;9.944;2022-12-04T16:21:40;5.00;99.90
5457;DHT22;2751;49.802;9.944;2022-12-04T16:24:10;5.10;99.90
5457;DHT22;2751;49.802;9.944;2022-12-04T16:26:38;5.00;99.90
5457;DHT22;2751;49.802;9.944;2022-12-04T16:29:05;5.10;99.90
5457;DHT22;2751;49.802;9.944;2022-12-04T16:31:33;5.00;99.90
5457;DHT22;2751;49.802;9.944;2022-12-04T16:34:00;5.00;99.90
5457;DHT22;2751;49.802;9.944;2022-12-04T16:36:27;5.40;99.90
5457;DHT22;2751;49.802;9.944;2022-12-04T16:38:54;5.50;99.90
5457;DHT22;2751;49.802;9.944;2022-12-04T16:41:21;5.10;99.90
5457;DHT22;2751;49.802;9.944;2022-12-04T16:43:53;5.20;99.90